sensor_id;sensor_type;location;lat;lon;timestamp;temperature;humidity
68485;DHT22;55472;50.060;21.960;2023-05-14T00:02:25;9.30;78.30
68485;DHT22;55472;50.060;21.960;2023-05-14T00:04:52;9.30;78.40
68485;DHT22;55472;50.060;21.960;2023-05-14T00:07:18;9.30;78.50
68485;DHT22;55472;50.060;21.960;2023-05-14T00:09:44;9.30;78.50
68485;DHT22;55472;50.060;21.960;2023-05-14T00:12:10;9.30;78.70
68485;DHT22;55472;50.060;21.960;2023-05-14T00:14:36;9.20;78.60
68485;DHT22;55472;50.060;21.960;2023-05-14T00:17:03;9.20;78.80
68485;DHT22;55472;50.060;21.960;2023-05-14T00:19:29;9.10;78.70
68485;DHT22;55472;50.060;21.960;2023-05-14T00:21:55;9.10;79.00
68485;DHT22;55472;50.060;21.960;2023-05-14T00:24:21;9.00;79.10
68485;DHT22;55472;50.060;21.960;2023-05-14T00:26:48;9.00;78.90
68485;DHT22;55472;50.060;21.960;2023-05-14T00:29:14;8.90;78.90
68485;DHT22;55472;50.060;21.960;2023-05-14T00:31:40;8.90;78.30
68485;DHT22;55472;50.060;21.960;2023-05-14T00:34:06;8.80;78.90
68485;DHT22;55472;50.060;21.960;2023-05-14T00:36:32;8.80;79.10
68485;DHT22;55472;50.060;21.960;2023-05-14T00:38:59;8.80;79.00
68485;DHT22;55472;50.060;21.960;2023-05-14T00:41:25;8.80;79.10
68485;DHT22;55472;50.060;21.960;2023-05-14T00:43:51;8.70;78.20
68485;DHT22;55472;50.060;21.960;2023-05-14T00:46:17;8.60;78.10
68485;DHT22;55472;50.060;21.960;2023-05-14T00:48:44;8.50;78.90
68485;DHT22;55472;50.060;21.960;2023-05-14T00:51:10;8.40;79.00
68485;DHT22;55472;50.060;21.960;2023-05-14T00:53:36;8.40;79.30
68485;DHT22;55472;50.060;21.960;2023-05-14T00:56:03;8.40;79.50
68485;DHT22;55472;50.060;21.960;2023-05-14T00:58:30;8.40;79.20
68485;DHT22;55472;50.060;21.960;2023-05-14T01:00:56;8.30;79.30
68485;DHT22;55472;50.060;21.960;2023-05-14T01:03:22;8.30;79.40
68485;DHT22;55472;50.060;21.960;2023-05-14T01:14:58;8.10;79.50
68485;DHT22;55472;50.060;21.960;2023-05-14T01:17:31;8.00;80.40
68485;DHT22;55472;50.060;21.960;2023-05-14T01:19:58;7.90;80.70
68485;DHT22;55472;50.060;21.960;2023-05-14T01:22:25;8.00;80.70
68485;DHT22;55472;50.060;21.960;2023-05-14T01:24:51;7.90;81.00
68485;DHT22;55472;50.060;21.960;2023-05-14T01:30:08;7.80;81.20
68485;DHT22;55472;50.060;21.960;2023-05-14T01:32:40;7.70;80.70
68485;DHT22;55472;50.060;21.960;2023-05-14T01:35:09;7.70;81.00
68485;DHT22;55472;50.060;21.960;2023-05-14T01:37:35;7.70;80.80
68485;DHT22;55472;50.060;21.960;2023-05-14T01:40:04;7.60;80.70
68485;DHT22;55472;50.060;21.960;2023-05-14T01:42:32;7.60;80.80
68485;DHT22;55472;50.060;21.960;2023-05-14T01:44:58;7.50;80.60
68485;DHT22;55472;50.060;21.960;2023-05-14T01:47:24;7.50;80.60
68485;DHT22;55472;50.060;21.960;2023-05-14T01:49:51;7.50;80.40
68485;DHT22;55472;50.060;21.960;2023-05-14T01:52:17;7.40;80.80
68485;DHT22;55472;50.060;21.960;2023-05-14T01:54:49;7.40;81.10
68485;DHT22;55472;50.060;21.960;2023-05-14T01:57:15;7.40;81.30
68485;DHT22;55472;50.060;21.960;2023-05-14T01:59:41;7.30;81.40
68485;DHT22;55472;50.060;21.960;2023-05-14T02:02:07;7.30;81.50
68485;DHT22;55472;50.060;21.960;2023-05-14T02:04:33;7.20;81.70
68485;DHT22;55472;50.060;21.960;2023-05-14T02:06:59;7.20;81.60
68485;DHT22;55472;50.060;21.960;2023-05-14T02:09:25;7.20;81.30
68485;DHT22;55472;50.060;21.960;2023-05-14T02:11:51;7.10;81.60
68485;DHT22;55472;50.060;21.960;2023-05-14T02:14:18;7.10;81.70
68485;DHT22;55472;50.060;21.960;2023-05-14T02:16:44;7.10;81.90
68485;DHT22;55472;50.060;21.960;2023-05-14T02:19:10;7.10;82.10
68485;DHT22;55472;50.060;21.960;2023-05-14T02:21:36;7.00;82.10
68485;DHT22;55472;50.060;21.960;2023-05-14T02:24:02;7.00;81.90
68485;DHT22;55472;50.060;21.960;2023-05-14T02:26:28;7.00;82.00
68485;DHT22;55472;50.060;21.960;2023-05-14T02:28:55;6.90;81.90
68485;DHT22;55472;50.060;21.960;2023-05-14T02:31:21;6.90;82.50
68485;DHT22;55472;50.060;21.960;2023-05-14T02:33:47;6.90;82.60
68485;DHT22;55472;50.060;21.960;2023-05-14T02:36:13;6.90;82.80
68485;DHT22;55472;50.060;21.960;2023-05-14T02:38:39;6.90;83.10
68485;DHT22;55472;50.060;21.960;2023-05-14T02:41:05;6.90;83.20
68485;DHT22;55472;50.060;21.960;2023-05-14T02:43:31;6.90;83.20
68485;DHT22;55472;50.060;21.960;2023-05-14T02:45:57;6.90;82.90
68485;DHT22;55472;50.060;21.960;2023-05-14T02:48:24;6.90;82.50
68485;DHT22;55472;50.060;21.960;2023-05-14T02:50:50;6.90;83.20
68485;DHT22;55472;50.060;21.960;2023-05-14T02:53:17;6.90;83.30
68485;DHT22;55472;50.060;21.960;2023-05-14T02:55:43;6.80;83.30
68485;DHT22;55472;50.060;21.960;2023-05-14T02:58:09;6.90;83.50
68485;DHT22;55472;50.060;21.960;2023-05-14T03:00:35;6.90;83.40
68485;DHT22;55472;50.060;21.960;2023-05-14T03:03:01;6.90;83.00
68485;DHT22;55472;50.060;21.960;2023-05-14T03:05:27;6.80;83.10
68485;DHT22;55472;50.060;21.960;2023-05-14T03:07:54;6.80;83.20
68485;DHT22;55472;50.060;21.960;2023-05-14T03:10:20;6.90;83.30
68485;DHT22;55472;50.060;21.960;2023-05-14T03:12:46;6.80;83.50
68485;DHT22;55472;50.060;21.960;2023-05-14T03:15:12;6.90;83.50
68485;DHT22;55472;50.060;21.960;2023-05-14T03:17:38;6.90;83.60
68485;DHT22;55472;50.060;21.960;2023-05-14T03:20:05;6.90;83.50
68485;DHT22;55472;50.060;21.960;2023-05-14T03:22:31;6.90;83.30
68485;DHT22;55472;50.060;21.960;2023-05-14T03:24:58;6.90;83.70
68485;DHT22;55472;50.060;21.960;2023-05-14T03:27:24;6.90;83.80
68485;DHT22;55472;50.060;21.960;2023-05-14T03:29:50;6.90;83.80
68485;DHT22;55472;50.060;21.960;2023-05-14T03:32:16;6.90;84.00
68485;DHT22;55472;50.060;21.960;2023-05-14T03:34:43;6.90;84.30
68485;DHT22;55472;50.060;21.960;2023-05-14T03:37:10;7.00;84.50
68485;DHT22;55472;50.060;21.960;2023-05-14T03:39:36;7.00;84.50
68485;DHT22;55472;50.060;21.960;2023-05-14T03:42:02;7.00;84.80
68485;DHT22;55472;50.060;21.960;2023-05-14T03:44:28;7.10;85.00
68485;DHT22;55472;50.060;21.960;2023-05-14T03:46:55;7.10;84.70
68485;DHT22;55472;50.060;21.960;2023-05-14T03:49:21;7.10;84.80
68485;DHT22;55472;50.060;21.960;2023-05-14T03:51:47;7.20;85.00
68485;DHT22;55472;50.060;21.960;2023-05-14T03:54:13;7.20;85.10
68485;DHT22;55472;50.060;21.960;2023-05-14T03:56:39;7.20;85.30
68485;DHT22;55472;50.060;21.960;2023-05-14T03:59:05;7.30;85.00
68485;DHT22;55472;50.060;21.960;2023-05-14T04:01:31;7.30;85.40
68485;DHT22;55472;50.060;21.960;2023-05-14T04:03:57;7.40;85.70
68485;DHT22;55472;50.060;21.960;2023-05-14T04:06:23;7.40;86.00
68485;DHT22;55472;50.060;21.960;2023-05-14T04:08:49;7.50;86.20
68485;DHT22;55472;50.060;21.960;2023-05-14T04:11:15;7.60;86.50
68485;DHT22;55472;50.060;21.960;2023-05-14T04:13:41;7.70;86.70
68485;DHT22;55472;50.060;21.960;2023-05-14T04:16:08;7.80;86.70
68485;DHT22;55472;50.060;21.960;2023-05-14T04:18:34;7.80;86.80
68485;DHT22;55472;50.060;21.960;2023-05-14T04:21:01;7.90;87.00
68485;DHT22;55472;50.060;21.960;2023-05-14T04:23:27;8.00;87.20
68485;DHT22;55472;50.060;21.960;2023-05-14T04:25:54;8.00;87.10
68485;DHT22;55472;50.060;21.960;2023-05-14T04:28:20;8.10;87.10
68485;DHT22;55472;50.060;21.960;2023-05-14T04:30:47;8.20;87.10
68485;DHT22;55472;50.060;21.960;2023-05-14T04:33:13;8.30;87.30
68485;DHT22;55472;50.060;21.960;2023-05-14T04:35:40;8.40;86.90
68485;DHT22;55472;50.060;21.960;2023-05-14T04:38:06;8.40;87.10
68485;DHT22;55472;50.060;21.960;2023-05-14T04:40:33;8.50;86.80
68485;DHT22;55472;50.060;21.960;2023-05-14T04:42:58;8.60;86.70
68485;DHT22;55472;50.060;21.960;2023-05-14T04:45:25;8.70;86.50
68485;DHT22;55472;50.060;21.960;2023-05-14T04:47:51;8.80;86.00
68485;DHT22;55472;50.060;21.960;2023-05-14T04:50:17;8.90;85.90
68485;DHT22;55472;50.060;21.960;2023-05-14T04:52:43;9.00;85.60
68485;DHT22;55472;50.060;21.960;2023-05-14T04:55:09;9.20;85.30
68485;DHT22;55472;50.060;21.960;2023-05-14T04:57:35;9.30;85.10
68485;DHT22;55472;50.060;21.960;2023-05-14T05:00:02;9.40;85.00
68485;DHT22;55472;50.060;21.960;2023-05-14T05:02:30;9.50;84.70
68485;DHT22;55472;50.060;21.960;2023-05-14T05:04:57;9.60;84.50
68485;DHT22;55472;50.060;21.960;2023-05-14T05:07:22;9.80;83.80
68485;DHT22;55472;50.060;21.960;2023-05-14T05:09:49;9.90;83.10
68485;DHT22;55472;50.060;21.960;2023-05-14T05:12:15;10.10;81.30
68485;DHT22;55472;50.060;21.960;2023-05-14T05:14:41;10.20;81.70
68485;DHT22;55472;50.060;21.960;2023-05-14T05:17:07;10.40;80.70
68485;DHT22;55472;50.060;21.960;2023-05-14T05:19:33;10.50;78.60
68485;DHT22;55472;50.060;21.960;2023-05-14T05:21:59;10.80;76.10
68485;DHT22;55472;50.060;21.960;2023-05-14T05:24:26;10.90;75.10
68485;DHT22;55472;50.060;21.960;2023-05-14T05:26:52;11.00;75.00
68485;DHT22;55472;50.060;21.960;2023-05-14T05:29:21;11.20;74.50
68485;DHT22;55472;50.060;21.960;2023-05-14T05:31:48;11.30;74.00
68485;DHT22;55472;50.060;21.960;2023-05-14T05:34:14;11.50;74.50
68485;DHT22;55472;50.060;21.960;2023-05-14T05:36:40;11.70;71.60
68485;DHT22;55472;50.060;21.960;2023-05-14T05:39:06;11.80;70.50
68485;DHT22;55472;50.060;21.960;2023-05-14T05:41:32;12.00;71.20
68485;DHT22;55472;50.060;21.960;2023-05-14T05:43:59;12.10;71.60
68485;DHT22;55472;50.060;21.960;2023-05-14T05:46:25;12.20;70.20
68485;DHT22;55472;50.060;21.960;2023-05-14T05:48:51;12.50;69.30
68485;DHT22;55472;50.060;21.960;2023-05-14T05:51:17;12.60;68.10
68485;DHT22;55472;50.060;21.960;2023-05-14T05:53:44;12.80;67.40
68485;DHT22;55472;50.060;21.960;2023-05-14T05:56:10;13.00;67.20
68485;DHT22;55472;50.060;21.960;2023-05-14T05:58:37;13.10;65.70
68485;DHT22;55472;50.060;21.960;2023-05-14T06:01:03;13.30;65.80
68485;DHT22;55472;50.060;21.960;2023-05-14T06:03:29;13.40;66.20
68485;DHT22;55472;50.060;21.960;2023-05-14T06:05:55;13.50;65.90
68485;DHT22;55472;50.060;21.960;2023-05-14T06:08:22;13.70;65.00
68485;DHT22;55472;50.060;21.960;2023-05-14T06:10:48;13.80;65.00
68485;DHT22;55472;50.060;21.960;2023-05-14T06:13:14;13.90;64.10
68485;DHT22;55472;50.060;21.960;2023-05-14T06:15:40;14.10;63.50
68485;DHT22;55472;50.060;21.960;2023-05-14T06:18:06;14.20;63.60
68485;DHT22;55472;50.060;21.960;2023-05-14T06:20:33;14.30;63.80
68485;DHT22;55472;50.060;21.960;2023-05-14T06:22:59;14.40;64.20
68485;DHT22;55472;50.060;21.960;2023-05-14T06:25:25;14.50;63.20
68485;DHT22;55472;50.060;21.960;2023-05-14T06:27:51;14.60;63.70
68485;DHT22;55472;50.060;21.960;2023-05-14T06:30:17;14.80;64.30
68485;DHT22;55472;50.060;21.960;2023-05-14T06:32:44;14.90;62.60
68485;DHT22;55472;50.060;21.960;2023-05-14T06:35:10;15.00;62.40
68485;DHT22;55472;50.060;21.960;2023-05-14T06:37:36;15.20;62.70
68485;DHT22;55472;50.060;21.960;2023-05-14T06:40:02;15.40;61.90
68485;DHT22;55472;50.060;21.960;2023-05-14T06:42:29;15.50;62.10
68485;DHT22;55472;50.060;21.960;2023-05-14T06:44:55;15.80;60.90
68485;DHT22;55472;50.060;21.960;2023-05-14T06:47:21;15.90;59.60
68485;DHT22;55472;50.060;21.960;2023-05-14T06:49:47;16.00;59.90
68485;DHT22;55472;50.060;21.960;2023-05-14T06:52:13;16.10;58.90
68485;DHT22;55472;50.060;21.960;2023-05-14T06:54:39;16.20;60.00
68485;DHT22;55472;50.060;21.960;2023-05-14T06:57:05;16.30;59.90
68485;DHT22;55472;50.060;21.960;2023-05-14T06:59:31;16.40;58.70
68485;DHT22;55472;50.060;21.960;2023-05-14T07:01:58;16.50;57.80
68485;DHT22;55472;50.060;21.960;2023-05-14T07:04:24;16.60;58.30
68485;DHT22;55472;50.060;21.960;2023-05-14T07:06:50;16.80;57.70
68485;DHT22;55472;50.060;21.960;2023-05-14T07:09:16;16.80;54.90
68485;DHT22;55472;50.060;21.960;2023-05-14T07:11:42;16.90;55.70
68485;DHT22;55472;50.060;21.960;2023-05-14T07:14:08;17.10;56.80
68485;DHT22;55472;50.060;21.960;2023-05-14T07:16:35;17.30;54.50
68485;DHT22;55472;50.060;21.960;2023-05-14T07:19:01;17.50;54.90
68485;DHT22;55472;50.060;21.960;2023-05-14T07:21:27;17.60;52.10
68485;DHT22;55472;50.060;21.960;2023-05-14T07:23:53;17.70;53.60
68485;DHT22;55472;50.060;21.960;2023-05-14T07:26:20;17.80;52.30
68485;DHT22;55472;50.060;21.960;2023-05-14T07:28:46;18.00;52.40
68485;DHT22;55472;50.060;21.960;2023-05-14T07:31:12;18.20;50.80
68485;DHT22;55472;50.060;21.960;2023-05-14T07:33:38;18.30;50.70
68485;DHT22;55472;50.060;21.960;2023-05-14T07:36:04;18.50;51.10
68485;DHT22;55472;50.060;21.960;2023-05-14T07:38:31;18.70;50.50
68485;DHT22;55472;50.060;21.960;2023-05-14T07:40:57;18.60;49.30
68485;DHT22;55472;50.060;21.960;2023-05-14T07:43:23;18.60;49.80
68485;DHT22;55472;50.060;21.960;2023-05-14T07:45:49;18.80;50.00
68485;DHT22;55472;50.060;21.960;2023-05-14T07:48:16;18.90;49.00
68485;DHT22;55472;50.060;21.960;2023-05-14T07:50:42;19.10;47.90
68485;DHT22;55472;50.060;21.960;2023-05-14T07:53:08;19.20;48.10
68485;DHT22;55472;50.060;21.960;2023-05-14T07:55:34;19.40;47.80
68485;DHT22;55472;50.060;21.960;2023-05-14T07:58:01;19.40;48.10
68485;DHT22;55472;50.060;21.960;2023-05-14T08:00:27;19.60;49.20
68485;DHT22;55472;50.060;21.960;2023-05-14T08:02:54;19.90;47.00
68485;DHT22;55472;50.060;21.960;2023-05-14T08:05:20;20.10;47.40
68485;DHT22;55472;50.060;21.960;2023-05-14T08:07:46;20.40;46.70
68485;DHT22;55472;50.060;21.960;2023-05-14T08:10:13;20.60;45.70
68485;DHT22;55472;50.060;21.960;2023-05-14T08:12:39;20.50;44.70
68485;DHT22;55472;50.060;21.960;2023-05-14T08:15:05;20.70;46.10
68485;DHT22;55472;50.060;21.960;2023-05-14T08:17:32;20.70;45.70
68485;DHT22;55472;50.060;21.960;2023-05-14T08:19:58;20.80;45.30
68485;DHT22;55472;50.060;21.960;2023-05-14T08:22:25;21.00;45.80
68485;DHT22;55472;50.060;21.960;2023-05-14T08:24:51;21.10;44.50
68485;DHT22;55472;50.060;21.960;2023-05-14T08:27:17;21.40;45.60
68485;DHT22;55472;50.060;21.960;2023-05-14T08:29:43;21.50;45.20
68485;DHT22;55472;50.060;21.960;2023-05-14T08:32:09;21.60;43.50
68485;DHT22;55472;50.060;21.960;2023-05-14T08:34:36;21.80;44.30
68485;DHT22;55472;50.060;21.960;2023-05-14T08:37:01;22.10;43.30
68485;DHT22;55472;50.060;21.960;2023-05-14T08:39:28;22.00;42.90
68485;DHT22;55472;50.060;21.960;2023-05-14T08:41:56;22.30;43.70
68485;DHT22;55472;50.060;21.960;2023-05-14T08:44:38;22.80;42.60
68485;DHT22;55472;50.060;21.960;2023-05-14T08:47:14;23.20;41.00
68485;DHT22;55472;50.060;21.960;2023-05-14T08:49:42;23.50;39.40
68485;DHT22;55472;50.060;21.960;2023-05-14T08:52:11;23.80;39.60
68485;DHT22;55472;50.060;21.960;2023-05-14T08:54:39;24.20;38.30
68485;DHT22;55472;50.060;21.960;2023-05-14T08:57:08;24.80;36.80
68485;DHT22;55472;50.060;21.960;2023-05-14T08:59:35;26.10;36.30
68485;DHT22;55472;50.060;21.960;2023-05-14T09:02:04;27.70;34.70
68485;DHT22;55472;50.060;21.960;2023-05-14T09:04:32;28.80;30.40
68485;DHT22;55472;50.060;21.960;2023-05-14T09:07:00;29.80;29.00
68485;DHT22;55472;50.060;21.960;2023-05-14T09:09:27;30.20;27.70
68485;DHT22;55472;50.060;21.960;2023-05-14T09:11:53;30.60;27.40
68485;DHT22;55472;50.060;21.960;2023-05-14T09:14:21;30.50;27.60
68485;DHT22;55472;50.060;21.960;2023-05-14T09:16:49;29.90;29.40
68485;DHT22;55472;50.060;21.960;2023-05-14T09:19:17;30.70;27.90
68485;DHT22;55472;50.060;21.960;2023-05-14T09:21:48;31.30;27.00
68485;DHT22;55472;50.060;21.960;2023-05-14T09:24:19;31.60;27.60
68485;DHT22;55472;50.060;21.960;2023-05-14T09:26:52;32.20;28.00
68485;DHT22;55472;50.060;21.960;2023-05-14T09:29:28;31.80;28.20
68485;DHT22;55472;50.060;21.960;2023-05-14T09:31:56;31.60;28.90
68485;DHT22;55472;50.060;21.960;2023-05-14T09:34:32;32.00;28.60
68485;DHT22;55472;50.060;21.960;2023-05-14T09:37:03;32.20;28.00
68485;DHT22;55472;50.060;21.960;2023-05-14T09:39:34;32.50;28.10
68485;DHT22;55472;50.060;21.960;2023-05-14T09:42:01;32.30;27.70
68485;DHT22;55472;50.060;21.960;2023-05-14T09:44:28;30.60;28.90
68485;DHT22;55472;50.060;21.960;2023-05-14T09:46:54;29.00;30.30
68485;DHT22;55472;50.060;21.960;2023-05-14T09:49:21;26.90;32.40
68485;DHT22;55472;50.060;21.960;2023-05-14T09:51:49;26.60;33.30
68485;DHT22;55472;50.060;21.960;2023-05-14T09:54:15;26.30;35.10
68485;DHT22;55472;50.060;21.960;2023-05-14T09:56:42;26.30;33.10
68485;DHT22;55472;50.060;21.960;2023-05-14T09:59:09;26.40;33.90
68485;DHT22;55472;50.060;21.960;2023-05-14T10:01:36;26.40;33.90
68485;DHT22;55472;50.060;21.960;2023-05-14T10:04:05;25.90;33.70
68485;DHT22;55472;50.060;21.960;2023-05-14T10:06:36;25.40;35.20
68485;DHT22;55472;50.060;21.960;2023-05-14T10:09:11;25.60;36.00
68485;DHT22;55472;50.060;21.960;2023-05-14T10:11:41;25.80;34.80
68485;DHT22;55472;50.060;21.960;2023-05-14T10:14:24;25.90;35.60
68485;DHT22;55472;50.060;21.960;2023-05-14T10:16:53;25.50;34.80
68485;DHT22;55472;50.060;21.960;2023-05-14T10:19:23;24.60;35.10
68485;DHT22;55472;50.060;21.960;2023-05-14T10:22:02;24.50;36.30
68485;DHT22;55472;50.060;21.960;2023-05-14T10:24:30;24.20;37.00
68485;DHT22;55472;50.060;21.960;2023-05-14T10:26:56;24.20;36.60
68485;DHT22;55472;50.060;21.960;2023-05-14T10:29:34;24.30;38.20
68485;DHT22;55472;50.060;21.960;2023-05-14T10:32:05;23.80;37.70
68485;DHT22;55472;50.060;21.960;2023-05-14T10:34:37;23.50;37.30
68485;DHT22;55472;50.060;21.960;2023-05-14T10:37:08;23.30;38.50
68485;DHT22;55472;50.060;21.960;2023-05-14T10:39:58;23.40;38.40
68485;DHT22;55472;50.060;21.960;2023-05-14T10:42:32;23.10;37.30
68485;DHT22;55472;50.060;21.960;2023-05-14T10:45:05;23.20;37.70
68485;DHT22;55472;50.060;21.960;2023-05-14T10:47:45;23.50;37.60
68485;DHT22;55472;50.060;21.960;2023-05-14T10:50:14;23.20;37.00
68485;DHT22;55472;50.060;21.960;2023-05-14T10:52:45;23.00;37.40
68485;DHT22;55472;50.060;21.960;2023-05-14T10:55:12;23.10;37.70
68485;DHT22;55472;50.060;21.960;2023-05-14T10:57:42;23.10;37.80
68485;DHT22;55472;50.060;21.960;2023-05-14T11:00:11;22.80;38.20
68485;DHT22;55472;50.060;21.960;2023-05-14T11:02:41;22.90;37.40
68485;DHT22;55472;50.060;21.960;2023-05-14T11:05:11;22.80;37.80
68485;DHT22;55472;50.060;21.960;2023-05-14T11:07:49;22.80;37.70
68485;DHT22;55472;50.060;21.960;2023-05-14T11:10:17;22.80;38.90
68485;DHT22;55472;50.060;21.960;2023-05-14T11:12:46;22.90;38.10
68485;DHT22;55472;50.060;21.960;2023-05-14T11:15:15;22.90;38.50
68485;DHT22;55472;50.060;21.960;2023-05-14T11:17:44;23.00;38.60
68485;DHT22;55472;50.060;21.960;2023-05-14T11:20:12;23.00;38.20
68485;DHT22;55472;50.060;21.960;2023-05-14T11:22:39;23.10;37.80
68485;DHT22;55472;50.060;21.960;2023-05-14T11:25:08;23.10;38.50
68485;DHT22;55472;50.060;21.960;2023-05-14T11:27:36;23.20;37.90
68485;DHT22;55472;50.060;21.960;2023-05-14T11:30:04;23.30;37.30
68485;DHT22;55472;50.060;21.960;2023-05-14T11:32:36;23.30;37.90
68485;DHT22;55472;50.060;21.960;2023-05-14T11:35:02;23.20;36.90
68485;DHT22;55472;50.060;21.960;2023-05-14T11:37:29;23.00;38.00
68485;DHT22;55472;50.060;21.960;2023-05-14T11:39:59;22.90;38.00
68485;DHT22;55472;50.060;21.960;2023-05-14T11:42:26;22.90;39.20
68485;DHT22;55472;50.060;21.960;2023-05-14T11:44:53;22.90;39.40
68485;DHT22;55472;50.060;21.960;2023-05-14T11:47:20;23.00;38.60
68485;DHT22;55472;50.060;21.960;2023-05-14T11:49:47;23.00;37.60
68485;DHT22;55472;50.060;21.960;2023-05-14T11:52:14;22.90;38.40
68485;DHT22;55472;50.060;21.960;2023-05-14T11:54:44;22.90;37.60
68485;DHT22;55472;50.060;21.960;2023-05-14T11:57:30;22.70;38.80
68485;DHT22;55472;50.060;21.960;2023-05-14T11:59:56;22.80;38.30
68485;DHT22;55472;50.060;21.960;2023-05-14T12:02:25;22.90;39.20
68485;DHT22;55472;50.060;21.960;2023-05-14T12:04:53;23.10;38.70
68485;DHT22;55472;50.060;21.960;2023-05-14T12:07:19;23.00;37.70
68485;DHT22;55472;50.060;21.960;2023-05-14T12:09:47;22.80;38.20
68485;DHT22;55472;50.060;21.960;2023-05-14T12:12:21;22.70;38.20
68485;DHT22;55472;50.060;21.960;2023-05-14T12:14:48;22.80;38.70
68485;DHT22;55472;50.060;21.960;2023-05-14T12:17:16;22.80;37.70
68485;DHT22;55472;50.060;21.960;2023-05-14T12:19:47;22.70;37.90
68485;DHT22;55472;50.060;21.960;2023-05-14T12:22:19;22.80;37.50
68485;DHT22;55472;50.060;21.960;2023-05-14T12:24:58;22.70;38.20
68485;DHT22;55472;50.060;21.960;2023-05-14T12:27:26;22.40;37.30
68485;DHT22;55472;50.060;21.960;2023-05-14T12:30:01;22.40;37.40
68485;DHT22;55472;50.060;21.960;2023-05-14T12:32:31;22.40;38.30
68485;DHT22;55472;50.060;21.960;2023-05-14T12:34:58;22.30;37.60
68485;DHT22;55472;50.060;21.960;2023-05-14T12:37:25;22.40;37.90
68485;DHT22;55472;50.060;21.960;2023-05-14T12:39:52;22.60;37.70
68485;DHT22;55472;50.060;21.960;2023-05-14T12:42:19;22.60;37.60
68485;DHT22;55472;50.060;21.960;2023-05-14T12:44:45;22.70;37.40
68485;DHT22;55472;50.060;21.960;2023-05-14T12:47:11;22.70;38.20
68485;DHT22;55472;50.060;21.960;2023-05-14T12:49:37;22.80;38.30
68485;DHT22;55472;50.060;21.960;2023-05-14T12:52:03;22.80;37.60
68485;DHT22;55472;50.060;21.960;2023-05-14T12:54:30;22.70;37.60
68485;DHT22;55472;50.060;21.960;2023-05-14T12:56:57;22.50;36.70
68485;DHT22;55472;50.060;21.960;2023-05-14T12:59:23;22.30;37.00
68485;DHT22;55472;50.060;21.960;2023-05-14T13:01:49;22.20;37.30
68485;DHT22;55472;50.060;21.960;2023-05-14T13:04:16;22.10;37.20
68485;DHT22;55472;50.060;21.960;2023-05-14T13:06:42;22.10;37.20
68485;DHT22;55472;50.060;21.960;2023-05-14T13:09:08;22.00;37.70
68485;DHT22;55472;50.060;21.960;2023-05-14T13:11:34;22.20;38.00
68485;DHT22;55472;50.060;21.960;2023-05-14T13:14:01;22.20;36.80
68485;DHT22;55472;50.060;21.960;2023-05-14T13:16:28;22.00;37.50
68485;DHT22;55472;50.060;21.960;2023-05-14T13:18:56;22.10;37.70
68485;DHT22;55472;50.060;21.960;2023-05-14T13:21:22;22.10;38.00
68485;DHT22;55472;50.060;21.960;2023-05-14T13:23:52;22.30;38.50
68485;DHT22;55472;50.060;21.960;2023-05-14T13:26:18;22.40;37.60
68485;DHT22;55472;50.060;21.960;2023-05-14T13:28:44;22.40;37.40
68485;DHT22;55472;50.060;21.960;2023-05-14T13:31:12;22.50;37.20
68485;DHT22;55472;50.060;21.960;2023-05-14T13:33:43;22.50;37.60
68485;DHT22;55472;50.060;21.960;2023-05-14T13:36:11;22.60;36.50
68485;DHT22;55472;50.060;21.960;2023-05-14T13:38:38;22.60;36.10
68485;DHT22;55472;50.060;21.960;2023-05-14T13:41:05;22.40;36.50
68485;DHT22;55472;50.060;21.960;2023-05-14T13:43:33;22.40;36.40
68485;DHT22;55472;50.060;21.960;2023-05-14T13:46:00;22.40;36.00
68485;DHT22;55472;50.060;21.960;2023-05-14T13:48:27;22.30;36.20
68485;DHT22;55472;50.060;21.960;2023-05-14T13:50:54;22.40;36.40
68485;DHT22;55472;50.060;21.960;2023-05-14T13:53:21;22.20;35.80
68485;DHT22;55472;50.060;21.960;2023-05-14T13:55:48;22.20;36.20
68485;DHT22;55472;50.060;21.960;2023-05-14T13:58:15;22.10;36.10
68485;DHT22;55472;50.060;21.960;2023-05-14T14:00:41;22.00;36.40
68485;DHT22;55472;50.060;21.960;2023-05-14T14:03:08;21.90;36.10
68485;DHT22;55472;50.060;21.960;2023-05-14T14:05:34;21.80;36.50
68485;DHT22;55472;50.060;21.960;2023-05-14T14:08:01;21.70;36.20
68485;DHT22;55472;50.060;21.960;2023-05-14T14:10:27;21.70;36.50
68485;DHT22;55472;50.060;21.960;2023-05-14T14:12:53;21.70;36.90
68485;DHT22;55472;50.060;21.960;2023-05-14T14:15:19;21.60;35.90
68485;DHT22;55472;50.060;21.960;2023-05-14T14:17:47;21.70;36.20
68485;DHT22;55472;50.060;21.960;2023-05-14T14:20:13;21.70;36.10
68485;DHT22;55472;50.060;21.960;2023-05-14T14:22:42;21.70;36.30
68485;DHT22;55472;50.060;21.960;2023-05-14T14:25:09;21.80;35.80
68485;DHT22;55472;50.060;21.960;2023-05-14T14:27:38;21.80;36.10
68485;DHT22;55472;50.060;21.960;2023-05-14T14:30:10;21.80;36.60
68485;DHT22;55472;50.060;21.960;2023-05-14T14:32:44;21.80;36.40
68485;DHT22;55472;50.060;21.960;2023-05-14T14:35:12;21.90;36.10
68485;DHT22;55472;50.060;21.960;2023-05-14T14:37:40;21.80;35.70
68485;DHT22;55472;50.060;21.960;2023-05-14T14:40:08;21.70;35.80
68485;DHT22;55472;50.060;21.960;2023-05-14T14:42:36;21.70;35.40
68485;DHT22;55472;50.060;21.960;2023-05-14T14:45:06;21.60;36.00
68485;DHT22;55472;50.060;21.960;2023-05-14T14:47:33;21.50;35.40
68485;DHT22;55472;50.060;21.960;2023-05-14T14:50:00;21.40;36.10
68485;DHT22;55472;50.060;21.960;2023-05-14T14:52:26;21.40;36.10
68485;DHT22;55472;50.060;21.960;2023-05-14T14:54:53;21.50;36.20
68485;DHT22;55472;50.060;21.960;2023-05-14T14:57:21;21.40;36.40
68485;DHT22;55472;50.060;21.960;2023-05-14T14:59:47;21.40;36.70
68485;DHT22;55472;50.060;21.960;2023-05-14T15:02:14;21.40;36.60
68485;DHT22;55472;50.060;21.960;2023-05-14T15:04:40;21.40;36.10
68485;DHT22;55472;50.060;21.960;2023-05-14T15:07:06;21.40;35.70
68485;DHT22;55472;50.060;21.960;2023-05-14T15:09:32;21.30;35.60
68485;DHT22;55472;50.060;21.960;2023-05-14T15:11:58;21.30;35.80
68485;DHT22;55472;50.060;21.960;2023-05-14T15:14:24;21.20;35.70
68485;DHT22;55472;50.060;21.960;2023-05-14T15:16:50;21.20;36.30
68485;DHT22;55472;50.060;21.960;2023-05-14T15:19:16;21.20;36.30
68485;DHT22;55472;50.060;21.960;2023-05-14T15:21:43;21.10;35.80
68485;DHT22;55472;50.060;21.960;2023-05-14T15:24:12;21.10;35.70
68485;DHT22;55472;50.060;21.960;2023-05-14T15:26:39;21.10;36.40
68485;DHT22;55472;50.060;21.960;2023-05-14T15:29:05;21.00;36.40
68485;DHT22;55472;50.060;21.960;2023-05-14T15:31:32;21.00;37.00
68485;DHT22;55472;50.060;21.960;2023-05-14T15:33:58;21.00;36.50